sensor_id;sensor_type;location;lat;lon;timestamp;P1;durP1;ratioP1;P2;durP2;ratioP2
52978;SDS011;63430;53.186;6.598;2023-07-13T00:00:38;37.55;;;35.17;;
52978;SDS011;63430;53.186;6.598;2023-07-13T00:02:41;45.35;;;42.72;;
52978;SDS011;63430;53.186;6.598;2023-07-13T00:04:44;54.00;;;51.40;;
52978;SDS011;63430;53.186;6.598;2023-07-13T00:06:49;151.07;;;143.35;;
52978;SDS011;63430;53.186;6.598;2023-07-13T00:08:52;46.00;;;43.58;;
52978;SDS011;63430;53.186;6.598;2023-07-13T00:10:55;52.97;;;50.42;;
52978;SDS011;63430;53.186;6.598;2023-07-13T00:13:01;53.05;;;50.28;;
52978;SDS011;63430;53.186;6.598;2023-07-13T00:15:09;47.42;;;44.42;;
52978;SDS011;63430;53.186;6.598;2023-07-13T00:17:16;47.90;;;45.35;;
52978;SDS011;63430;53.186;6.598;2023-07-13T00:19:19;57.17;;;54.08;;
52978;SDS011;63430;53.186;6.598;2023-07-13T00:21:22;43.67;;;40.90;;
52978;SDS011;63430;53.186;6.598;2023-07-13T00:23:28;37.75;;;35.30;;
52978;SDS011;63430;53.186;6.598;2023-07-13T00:25:32;46.55;;;43.47;;
52978;SDS011;63430;53.186;6.598;2023-07-13T00:27:37;29.17;;;27.23;;
52978;SDS011;63430;53.186;6.598;2023-07-13T00:29:39;31.08;;;29.10;;
52978;SDS011;63430;53.186;6.598;2023-07-13T00:31:42;56.50;;;53.05;;
52978;SDS011;63430;53.186;6.598;2023-07-13T00:33:45;50.20;;;47.47;;
52978;SDS011;63430;53.186;6.598;2023-07-13T00:35:48;40.05;;;37.63;;
52978;SDS011;63430;53.186;6.598;2023-07-13T00:37:51;38.22;;;35.63;;
52978;SDS011;63430;53.186;6.598;2023-07-13T00:39:57;34.92;;;32.95;;
52978;SDS011;63430;53.186;6.598;2023-07-13T00:41:59;32.53;;;30.73;;
52978;SDS011;63430;53.186;6.598;2023-07-13T00:44:03;44.30;;;41.42;;
52978;SDS011;63430;53.186;6.598;2023-07-13T00:46:21;29.20;;;27.30;;
52978;SDS011;63430;53.186;6.598;2023-07-13T00:48:27;36.42;;;33.58;;
52978;SDS011;63430;53.186;6.598;2023-07-13T00:50:33;31.27;;;29.33;;
52978;SDS011;63430;53.186;6.598;2023-07-13T00:52:36;32.50;;;30.60;;
52978;SDS011;63430;53.186;6.598;2023-07-13T00:54:43;26.73;;;25.08;;
52978;SDS011;63430;53.186;6.598;2023-07-13T00:56:55;28.35;;;26.60;;
52978;SDS011;63430;53.186;6.598;2023-07-13T00:59:04;30.67;;;28.92;;
52978;SDS011;63430;53.186;6.598;2023-07-13T01:01:11;32.38;;;30.10;;
52978;SDS011;63430;53.186;6.598;2023-07-13T01:03:15;25.17;;;23.80;;
52978;SDS011;63430;53.186;6.598;2023-07-13T01:05:19;35.47;;;33.33;;
52978;SDS011;63430;53.186;6.598;2023-07-13T01:07:23;29.35;;;27.35;;
52978;SDS011;63430;53.186;6.598;2023-07-13T01:09:26;30.57;;;28.37;;
52978;SDS011;63430;53.186;6.598;2023-07-13T01:11:29;41.63;;;38.97;;
52978;SDS011;63430;53.186;6.598;2023-07-13T01:13:35;24.52;;;22.95;;
52978;SDS011;63430;53.186;6.598;2023-07-13T01:15:38;26.90;;;25.10;;
52978;SDS011;63430;53.186;6.598;2023-07-13T01:17:45;25.67;;;24.15;;
52978;SDS011;63430;53.186;6.598;2023-07-13T01:19:51;26.90;;;25.38;;
52978;SDS011;63430;53.186;6.598;2023-07-13T01:21:56;38.45;;;35.80;;
52978;SDS011;63430;53.186;6.598;2023-07-13T01:24:00;26.90;;;25.05;;
52978;SDS011;63430;53.186;6.598;2023-07-13T01:28:07;39.28;;;37.13;;
52978;SDS011;63430;53.186;6.598;2023-07-13T01:30:12;28.17;;;26.40;;
52978;SDS011;63430;53.186;6.598;2023-07-13T01:32:16;30.43;;;28.50;;
52978;SDS011;63430;53.186;6.598;2023-07-13T01:34:29;42.67;;;39.80;;
52978;SDS011;63430;53.186;6.598;2023-07-13T01:36:34;33.30;;;31.40;;
52978;SDS011;63430;53.186;6.598;2023-07-13T01:38:41;29.92;;;27.10;;
52978;SDS011;63430;53.186;6.598;2023-07-13T01:40:45;60.35;;;56.55;;
52978;SDS011;63430;53.186;6.598;2023-07-13T01:42:48;26.65;;;24.95;;
52978;SDS011;63430;53.186;6.598;2023-07-13T01:44:54;27.63;;;25.35;;
52978;SDS011;63430;53.186;6.598;2023-07-13T01:46:58;32.80;;;30.85;;
52978;SDS011;63430;53.186;6.598;2023-07-13T01:49:01;31.75;;;29.20;;
52978;SDS011;63430;53.186;6.598;2023-07-13T01:51:04;30.92;;;28.85;;
52978;SDS011;63430;53.186;6.598;2023-07-13T01:53:06;39.10;;;36.63;;
52978;SDS011;63430;53.186;6.598;2023-07-13T01:55:12;33.92;;;31.52;;
52978;SDS011;63430;53.186;6.598;2023-07-13T01:57:15;41.95;;;39.15;;
52978;SDS011;63430;53.186;6.598;2023-07-13T01:59:18;68.03;;;64.20;;
52978;SDS011;63430;53.186;6.598;2023-07-13T02:01:21;35.60;;;33.55;;
52978;SDS011;63430;53.186;6.598;2023-07-13T02:03:24;35.28;;;32.95;;
52978;SDS011;63430;53.186;6.598;2023-07-13T02:05:27;35.97;;;33.33;;
52978;SDS011;63430;53.186;6.598;2023-07-13T02:07:30;29.70;;;27.52;;
52978;SDS011;63430;53.186;6.598;2023-07-13T02:09:32;29.70;;;27.48;;
52978;SDS011;63430;53.186;6.598;2023-07-13T02:11:38;37.50;;;34.92;;
52978;SDS011;63430;53.186;6.598;2023-07-13T02:13:40;27.70;;;25.58;;
52978;SDS011;63430;53.186;6.598;2023-07-13T02:15:43;36.63;;;34.17;;
52978;SDS011;63430;53.186;6.598;2023-07-13T02:17:46;28.40;;;26.23;;
52978;SDS011;63430;53.186;6.598;2023-07-13T02:19:49;29.27;;;26.92;;
52978;SDS011;63430;53.186;6.598;2023-07-13T02:21:52;39.70;;;37.30;;
52978;SDS011;63430;53.186;6.598;2023-07-13T02:23:55;34.35;;;32.22;;
52978;SDS011;63430;53.186;6.598;2023-07-13T02:26:00;26.35;;;24.60;;
52978;SDS011;63430;53.186;6.598;2023-07-13T02:28:15;31.80;;;29.17;;
52978;SDS011;63430;53.186;6.598;2023-07-13T02:30:18;25.33;;;23.88;;
52978;SDS011;63430;53.186;6.598;2023-07-13T02:32:20;22.42;;;20.75;;
52978;SDS011;63430;53.186;6.598;2023-07-13T02:34:25;36.10;;;33.88;;
52978;SDS011;63430;53.186;6.598;2023-07-13T02:36:28;31.52;;;29.55;;
52978;SDS011;63430;53.186;6.598;2023-07-13T02:38:31;29.67;;;27.37;;
52978;SDS011;63430;53.186;6.598;2023-07-13T02:40:38;24.48;;;22.98;;
52978;SDS011;63430;53.186;6.598;2023-07-13T02:42:41;30.60;;;28.30;;
52978;SDS011;63430;53.186;6.598;2023-07-13T02:44:46;31.60;;;29.52;;
52978;SDS011;63430;53.186;6.598;2023-07-13T02:46:50;23.88;;;22.27;;
52978;SDS011;63430;53.186;6.598;2023-07-13T02:48:53;26.58;;;24.50;;
52978;SDS011;63430;53.186;6.598;2023-07-13T02:50:56;51.65;;;47.80;;
52978;SDS011;63430;53.186;6.598;2023-07-13T02:52:59;27.42;;;25.42;;
52978;SDS011;63430;53.186;6.598;2023-07-13T02:55:02;36.70;;;34.17;;
52978;SDS011;63430;53.186;6.598;2023-07-13T02:57:05;29.50;;;27.58;;
52978;SDS011;63430;53.186;6.598;2023-07-13T02:59:08;28.70;;;26.77;;
52978;SDS011;63430;53.186;6.598;2023-07-13T03:03:21;30.58;;;28.48;;
52978;SDS011;63430;53.186;6.598;2023-07-13T03:05:24;31.05;;;28.85;;
52978;SDS011;63430;53.186;6.598;2023-07-13T03:07:27;26.90;;;24.85;;
52978;SDS011;63430;53.186;6.598;2023-07-13T03:09:31;40.55;;;37.72;;
52978;SDS011;63430;53.186;6.598;2023-07-13T03:11:36;31.13;;;28.83;;
52978;SDS011;63430;53.186;6.598;2023-07-13T03:13:49;37.13;;;34.03;;
52978;SDS011;63430;53.186;6.598;2023-07-13T03:15:53;77.45;;;73.40;;
52978;SDS011;63430;53.186;6.598;2023-07-13T03:17:59;31.63;;;29.75;;
52978;SDS011;63430;53.186;6.598;2023-07-13T03:20:07;88.65;;;83.82;;
52978;SDS011;63430;53.186;6.598;2023-07-13T03:22:11;27.10;;;25.23;;
52978;SDS011;63430;53.186;6.598;2023-07-13T03:24:16;57.40;;;53.95;;
52978;SDS011;63430;53.186;6.598;2023-07-13T03:26:19;44.75;;;42.05;;
52978;SDS011;63430;53.186;6.598;2023-07-13T03:28:23;35.22;;;32.85;;
52978;SDS011;63430;53.186;6.598;2023-07-13T03:30:26;26.73;;;24.63;;
52978;SDS011;63430;53.186;6.598;2023-07-13T03:32:29;60.22;;;56.92;;
52978;SDS011;63430;53.186;6.598;2023-07-13T03:34:35;33.55;;;30.60;;
52978;SDS011;63430;53.186;6.598;2023-07-13T03:36:39;24.25;;;22.60;;
52978;SDS011;63430;53.186;6.598;2023-07-13T03:38:45;28.13;;;26.08;;
52978;SDS011;63430;53.186;6.598;2023-07-13T03:42:52;30.13;;;28.00;;
52978;SDS011;63430;53.186;6.598;2023-07-13T03:44:56;23.27;;;21.52;;
52978;SDS011;63430;53.186;6.598;2023-07-13T03:46:59;30.10;;;28.13;;
52978;SDS011;63430;53.186;6.598;2023-07-13T03:49:04;41.83;;;39.08;;
52978;SDS011;63430;53.186;6.598;2023-07-13T03:51:10;28.20;;;26.25;;
52978;SDS011;63430;53.186;6.598;2023-07-13T03:53:15;62.75;;;59.47;;
52978;SDS011;63430;53.186;6.598;2023-07-13T03:55:18;30.52;;;28.45;;
52978;SDS011;63430;53.186;6.598;2023-07-13T03:57:21;47.53;;;44.58;;
52978;SDS011;63430;53.186;6.598;2023-07-13T03:59:25;20.85;;;19.10;;
52978;SDS011;63430;53.186;6.598;2023-07-13T04:01:27;38.30;;;35.38;;
52978;SDS011;63430;53.186;6.598;2023-07-13T04:03:30;40.13;;;37.00;;
52978;SDS011;63430;53.186;6.598;2023-07-13T04:07:41;47.53;;;44.15;;
52978;SDS011;63430;53.186;6.598;2023-07-13T04:09:44;29.90;;;27.77;;
52978;SDS011;63430;53.186;6.598;2023-07-13T04:11:47;59.28;;;55.47;;
52978;SDS011;63430;53.186;6.598;2023-07-13T04:13:50;42.50;;;39.92;;
52978;SDS011;63430;53.186;6.598;2023-07-13T04:15:53;30.33;;;28.40;;
52978;SDS011;63430;53.186;6.598;2023-07-13T04:17:57;30.65;;;28.60;;
52978;SDS011;63430;53.186;6.598;2023-07-13T04:20:01;26.20;;;24.35;;
52978;SDS011;63430;53.186;6.598;2023-07-13T04:22:04;28.35;;;25.80;;
52978;SDS011;63430;53.186;6.598;2023-07-13T04:24:10;34.15;;;32.00;;
52978;SDS011;63430;53.186;6.598;2023-07-13T04:26:13;44.88;;;42.00;;
52978;SDS011;63430;53.186;6.598;2023-07-13T04:28:15;56.33;;;53.17;;
52978;SDS011;63430;53.186;6.598;2023-07-13T04:30:24;26.77;;;24.58;;
52978;SDS011;63430;53.186;6.598;2023-07-13T04:32:27;59.65;;;55.63;;
52978;SDS011;63430;53.186;6.598;2023-07-13T04:34:30;75.07;;;70.90;;
52978;SDS011;63430;53.186;6.598;2023-07-13T04:36:36;66.95;;;63.33;;
52978;SDS011;63430;53.186;6.598;2023-07-13T04:38:42;48.65;;;45.92;;
52978;SDS011;63430;53.186;6.598;2023-07-13T04:40:48;29.65;;;27.48;;
52978;SDS011;63430;53.186;6.598;2023-07-13T04:42:51;36.78;;;34.35;;
52978;SDS011;63430;53.186;6.598;2023-07-13T04:44:55;45.67;;;42.42;;
52978;SDS011;63430;53.186;6.598;2023-07-13T04:47:00;48.78;;;45.92;;
52978;SDS011;63430;53.186;6.598;2023-07-13T04:49:04;69.88;;;65.88;;
52978;SDS011;63430;53.186;6.598;2023-07-13T04:51:07;25.58;;;23.77;;
52978;SDS011;63430;53.186;6.598;2023-07-13T04:53:11;42.78;;;40.00;;
52978;SDS011;63430;53.186;6.598;2023-07-13T04:55:16;51.58;;;48.38;;
52978;SDS011;63430;53.186;6.598;2023-07-13T04:57:21;31.30;;;29.30;;
52978;SDS011;63430;53.186;6.598;2023-07-13T04:59:24;46.22;;;43.35;;
52978;SDS011;63430;53.186;6.598;2023-07-13T05:01:30;83.35;;;78.55;;
52978;SDS011;63430;53.186;6.598;2023-07-13T05:03:33;42.90;;;39.70;;
52978;SDS011;63430;53.186;6.598;2023-07-13T05:05:36;47.97;;;45.00;;
52978;SDS011;63430;53.186;6.598;2023-07-13T05:09:43;24.42;;;22.58;;
52978;SDS011;63430;53.186;6.598;2023-07-13T05:11:46;32.45;;;29.90;;
52978;SDS011;63430;53.186;6.598;2023-07-13T05:13:52;43.55;;;40.53;;
52978;SDS011;63430;53.186;6.598;2023-07-13T05:15:56;50.10;;;46.65;;
52978;SDS011;63430;53.186;6.598;2023-07-13T05:18:02;24.17;;;21.83;;
52978;SDS011;63430;53.186;6.598;2023-07-13T05:20:08;53.70;;;50.13;;
52978;SDS011;63430;53.186;6.598;2023-07-13T05:22:11;30.63;;;28.55;;
52978;SDS011;63430;53.186;6.598;2023-07-13T05:24:15;22.23;;;20.73;;
52978;SDS011;63430;53.186;6.598;2023-07-13T05:26:26;24.45;;;22.80;;
52978;SDS011;63430;53.186;6.598;2023-07-13T05:28:30;18.23;;;17.05;;
52978;SDS011;63430;53.186;6.598;2023-07-13T05:30:42;18.73;;;17.13;;
52978;SDS011;63430;53.186;6.598;2023-07-13T05:32:47;25.45;;;23.52;;
52978;SDS011;63430;53.186;6.598;2023-07-13T05:34:55;22.10;;;20.65;;
52978;SDS011;63430;53.186;6.598;2023-07-13T05:36:58;30.35;;;28.10;;
52978;SDS011;63430;53.186;6.598;2023-07-13T05:39:02;188.98;;;174.90;;
52978;SDS011;63430;53.186;6.598;2023-07-13T05:41:05;15.95;;;14.32;;
52978;SDS011;63430;53.186;6.598;2023-07-13T05:43:10;26.77;;;24.95;;
52978;SDS011;63430;53.186;6.598;2023-07-13T05:47:20;19.00;;;17.38;;
52978;SDS011;63430;53.186;6.598;2023-07-13T05:49:23;18.13;;;16.85;;
52978;SDS011;63430;53.186;6.598;2023-07-13T05:51:27;15.40;;;13.98;;
52978;SDS011;63430;53.186;6.598;2023-07-13T05:53:33;17.15;;;15.60;;
52978;SDS011;63430;53.186;6.598;2023-07-13T05:55:40;17.90;;;16.75;;
52978;SDS011;63430;53.186;6.598;2023-07-13T05:57:46;16.77;;;15.48;;
52978;SDS011;63430;53.186;6.598;2023-07-13T05:59:49;19.60;;;17.98;;
52978;SDS011;63430;53.186;6.598;2023-07-13T06:01:54;18.92;;;17.52;;
52978;SDS011;63430;53.186;6.598;2023-07-13T06:03:59;73.85;;;69.25;;
52978;SDS011;63430;53.186;6.598;2023-07-13T06:06:02;21.70;;;20.27;;
52978;SDS011;63430;53.186;6.598;2023-07-13T06:08:06;21.25;;;19.77;;
52978;SDS011;63430;53.186;6.598;2023-07-13T06:10:10;37.50;;;34.53;;
52978;SDS011;63430;53.186;6.598;2023-07-13T06:12:12;60.08;;;56.08;;
52978;SDS011;63430;53.186;6.598;2023-07-13T06:14:15;25.77;;;24.35;;
52978;SDS011;63430;53.186;6.598;2023-07-13T06:16:18;30.50;;;28.33;;
52978;SDS011;63430;53.186;6.598;2023-07-13T06:18:23;28.85;;;27.15;;
52978;SDS011;63430;53.186;6.598;2023-07-13T06:20:33;30.98;;;29.17;;
52978;SDS011;63430;53.186;6.598;2023-07-13T06:22:36;66.75;;;62.72;;
52978;SDS011;63430;53.186;6.598;2023-07-13T06:24:39;176.23;;;160.77;;
52978;SDS011;63430;53.186;6.598;2023-07-13T06:26:42;36.13;;;33.70;;
52978;SDS011;63430;53.186;6.598;2023-07-13T06:28:45;277.55;;;262.13;;
52978;SDS011;63430;53.186;6.598;2023-07-13T06:30:48;44.78;;;42.30;;
52978;SDS011;63430;53.186;6.598;2023-07-13T06:32:51;35.40;;;33.33;;
52978;SDS011;63430;53.186;6.598;2023-07-13T06:34:54;37.17;;;34.60;;
52978;SDS011;63430;53.186;6.598;2023-07-13T06:36:59;30.58;;;28.77;;
52978;SDS011;63430;53.186;6.598;2023-07-13T06:39:02;62.55;;;58.22;;
52978;SDS011;63430;53.186;6.598;2023-07-13T06:41:05;46.53;;;43.60;;
52978;SDS011;63430;53.186;6.598;2023-07-13T06:43:09;33.45;;;31.35;;
52978;SDS011;63430;53.186;6.598;2023-07-13T06:45:12;42.97;;;40.75;;
52978;SDS011;63430;53.186;6.598;2023-07-13T06:47:16;82.90;;;78.30;;
52978;SDS011;63430;53.186;6.598;2023-07-13T06:49:18;147.82;;;139.60;;
52978;SDS011;63430;53.186;6.598;2023-07-13T06:51:22;335.77;;;318.55;;
52978;SDS011;63430;53.186;6.598;2023-07-13T06:53:30;104.75;;;99.53;;
52978;SDS011;63430;53.186;6.598;2023-07-13T06:55:33;386.10;;;367.52;;
52978;SDS011;63430;53.186;6.598;2023-07-13T06:57:36;331.15;;;315.02;;
52978;SDS011;63430;53.186;6.598;2023-07-13T06:59:40;269.45;;;256.00;;
52978;SDS011;63430;53.186;6.598;2023-07-13T07:01:45;150.20;;;141.88;;
52978;SDS011;63430;53.186;6.598;2023-07-13T07:03:48;203.52;;;192.95;;
52978;SDS011;63430;53.186;6.598;2023-07-13T07:05:51;329.10;;;312.67;;
52978;SDS011;63430;53.186;6.598;2023-07-13T07:07:55;357.52;;;340.17;;
52978;SDS011;63430;53.186;6.598;2023-07-13T07:10:06;369.83;;;351.83;;
52978;SDS011;63430;53.186;6.598;2023-07-13T07:12:10;378.92;;;360.55;;
52978;SDS011;63430;53.186;6.598;2023-07-13T07:14:16;251.23;;;239.35;;
52978;SDS011;63430;53.186;6.598;2023-07-13T07:16:21;237.30;;;224.00;;
52978;SDS011;63430;53.186;6.598;2023-07-13T07:18:24;381.15;;;362.00;;
52978;SDS011;63430;53.186;6.598;2023-07-13T07:20:27;140.73;;;133.25;;
52978;SDS011;63430;53.186;6.598;2023-07-13T07:22:30;132.32;;;125.40;;
52978;SDS011;63430;53.186;6.598;2023-07-13T07:24:33;407.13;;;386.63;;
52978;SDS011;63430;53.186;6.598;2023-07-13T07:26:39;289.08;;;275.10;;
52978;SDS011;63430;53.186;6.598;2023-07-13T07:28:44;182.23;;;173.07;;
52978;SDS011;63430;53.186;6.598;2023-07-13T07:31:07;133.73;;;126.90;;
52978;SDS011;63430;53.186;6.598;2023-07-13T07:33:14;267.90;;;253.82;;
52978;SDS011;63430;53.186;6.598;2023-07-13T07:37:20;343.77;;;327.08;;
52978;SDS011;63430;53.186;6.598;2023-07-13T07:39:43;423.38;;;401.13;;
52978;SDS011;63430;53.186;6.598;2023-07-13T07:42:09;396.25;;;375.95;;
52978;SDS011;63430;53.186;6.598;2023-07-13T07:44:14;153.40;;;145.65;;
52978;SDS011;63430;53.186;6.598;2023-07-13T07:46:19;108.10;;;102.65;;
52978;SDS011;63430;53.186;6.598;2023-07-13T07:48:23;97.75;;;93.07;;
52978;SDS011;63430;53.186;6.598;2023-07-13T07:50:25;65.25;;;62.00;;
52978;SDS011;63430;53.186;6.598;2023-07-13T07:52:31;69.32;;;65.97;;
52978;SDS011;63430;53.186;6.598;2023-07-13T07:54:34;88.18;;;83.88;;
52978;SDS011;63430;53.186;6.598;2023-07-13T07:56:39;104.43;;;99.45;;
52978;SDS011;63430;53.186;6.598;2023-07-13T07:58:48;268.85;;;254.43;;
52978;SDS011;63430;53.186;6.598;2023-07-13T08:00:53;256.77;;;242.57;;
52978;SDS011;63430;53.186;6.598;2023-07-13T08:03:06;66.30;;;62.78;;
52978;SDS011;63430;53.186;6.598;2023-07-13T08:05:12;59.03;;;56.22;;
52978;SDS011;63430;53.186;6.598;2023-07-13T08:07:17;64.40;;;61.08;;
52978;SDS011;63430;53.186;6.598;2023-07-13T08:09:23;70.65;;;66.93;;
52978;SDS011;63430;53.186;6.598;2023-07-13T08:11:26;279.33;;;264.33;;
52978;SDS011;63430;53.186;6.598;2023-07-13T08:13:32;415.70;;;395.00;;
52978;SDS011;63430;53.186;6.598;2023-07-13T08:15:40;345.88;;;329.08;;
52978;SDS011;63430;53.186;6.598;2023-07-13T08:17:43;419.33;;;395.05;;
52978;SDS011;63430;53.186;6.598;2023-07-13T08:19:46;68.83;;;65.63;;
52978;SDS011;63430;53.186;6.598;2023-07-13T08:21:52;52.25;;;49.55;;
52978;SDS011;63430;53.186;6.598;2023-07-13T08:23:56;81.07;;;76.85;;
52978;SDS011;63430;53.186;6.598;2023-07-13T08:25:59;191.52;;;182.98;;
52978;SDS011;63430;53.186;6.598;2023-07-13T08:28:03;106.50;;;101.47;;
52978;SDS011;63430;53.186;6.598;2023-07-13T08:30:06;52.70;;;50.10;;
52978;SDS011;63430;53.186;6.598;2023-07-13T08:32:12;89.20;;;85.07;;
52978;SDS011;63430;53.186;6.598;2023-07-13T08:34:15;42.83;;;40.38;;
52978;SDS011;63430;53.186;6.598;2023-07-13T08:36:18;150.10;;;142.65;;
52978;SDS011;63430;53.186;6.598;2023-07-13T08:38:21;80.53;;;76.55;;
52978;SDS011;63430;53.186;6.598;2023-07-13T08:40:25;170.80;;;162.07;;
52978;SDS011;63430;53.186;6.598;2023-07-13T08:44:36;282.58;;;268.30;;
52978;SDS011;63430;53.186;6.598;2023-07-13T08:46:46;242.00;;;230.45;;
52978;SDS011;63430;53.186;6.598;2023-07-13T08:48:56;408.15;;;388.10;;
52978;SDS011;63430;53.186;6.598;2023-07-13T08:51:01;355.20;;;337.15;;
52978;SDS011;63430;53.186;6.598;2023-07-13T08:53:12;364.95;;;346.23;;
52978;SDS011;63430;53.186;6.598;2023-07-13T08:55:18;222.73;;;212.18;;
52978;SDS011;63430;53.186;6.598;2023-07-13T08:57:27;267.25;;;253.02;;
52978;SDS011;63430;53.186;6.598;2023-07-13T08:59:34;297.23;;;282.25;;
52978;SDS011;63430;53.186;6.598;2023-07-13T09:01:46;274.70;;;259.83;;
52978;SDS011;63430;53.186;6.598;2023-07-13T09:04:02;434.40;;;411.60;;
52978;SDS011;63430;53.186;6.598;2023-07-13T09:06:09;370.80;;;351.30;;
52978;SDS011;63430;53.186;6.598;2023-07-13T09:08:20;427.17;;;405.23;;
52978;SDS011;63430;53.186;6.598;2023-07-13T09:10:37;357.55;;;339.73;;
52978;SDS011;63430;53.186;6.598;2023-07-13T09:12:49;386.58;;;366.67;;
52978;SDS011;63430;53.186;6.598;2023-07-13T09:14:59;381.70;;;361.73;;
52978;SDS011;63430;53.186;6.598;2023-07-13T09:17:10;318.92;;;302.30;;
52978;SDS011;63430;53.186;6.598;2023-07-13T09:19:20;425.27;;;403.35;;
52978;SDS011;63430;53.186;6.598;2023-07-13T09:21:29;367.08;;;348.52;;
52978;SDS011;63430;53.186;6.598;2023-07-13T09:23:35;223.55;;;212.35;;
52978;SDS011;63430;53.186;6.598;2023-07-13T09:25:42;338.95;;;322.52;;
52978;SDS011;63430;53.186;6.598;2023-07-13T09:27:49;138.10;;;131.57;;
52978;SDS011;63430;53.186;6.598;2023-07-13T09:29:58;371.90;;;353.45;;
52978;SDS011;63430;53.186;6.598;2023-07-13T09:32:13;185.73;;;176.70;;
52978;SDS011;63430;53.186;6.598;2023-07-13T09:34:21;331.80;;;313.65;;
52978;SDS011;63430;53.186;6.598;2023-07-13T09:36:26;212.27;;;202.18;;
52978;SDS011;63430;53.186;6.598;2023-07-13T09:38:35;224.30;;;212.93;;
52978;SDS011;63430;53.186;6.598;2023-07-13T09:40:44;267.42;;;254.60;;
52978;SDS011;63430;53.186;6.598;2023-07-13T09:42:58;166.30;;;157.90;;
52978;SDS011;63430;53.186;6.598;2023-07-13T09:45:01;289.77;;;274.98;;
52978;SDS011;63430;53.186;6.598;2023-07-13T09:47:14;181.02;;;172.18;;
52978;SDS011;63430;53.186;6.598;2023-07-13T09:49:29;206.35;;;196.27;;
52978;SDS011;63430;53.186;6.598;2023-07-13T09:51:40;212.70;;;202.38;;
52978;SDS011;63430;53.186;6.598;2023-07-13T09:53:47;198.65;;;188.68;;
52978;SDS011;63430;53.186;6.598;2023-07-13T09:55:52;217.00;;;206.57;;
52978;SDS011;63430;53.186;6.598;2023-07-13T09:57:57;436.10;;;414.08;;
52978;SDS011;63430;53.186;6.598;2023-07-13T10:00:00;394.37;;;373.37;;
52978;SDS011;63430;53.186;6.598;2023-07-13T10:02:20;387.33;;;367.75;;
52978;SDS011;63430;53.186;6.598;2023-07-13T10:04:31;444.50;;;422.17;;
52978;SDS011;63430;53.186;6.598;2023-07-13T10:06:37;413.15;;;388.73;;
52978;SDS011;63430;53.186;6.598;2023-07-13T10:08:46;302.40;;;285.17;;
52978;SDS011;63430;53.186;6.598;2023-07-13T10:10:52;385.13;;;357.45;;
52978;SDS011;63430;53.186;6.598;2023-07-13T10:13:01;313.92;;;296.75;;
52978;SDS011;63430;53.186;6.598;2023-07-13T10:15:09;393.92;;;374.17;;
52978;SDS011;63430;53.186;6.598;2023-07-13T10:17:27;349.17;;;330.63;;
52978;SDS011;63430;53.186;6.598;2023-07-13T10:19:35;378.55;;;359.27;;
52978;SDS011;63430;53.186;6.598;2023-07-13T10:21:42;490.70;;;464.80;;
52978;SDS011;63430;53.186;6.598;2023-07-13T10:23:51;405.10;;;381.70;;
52978;SDS011;63430;53.186;6.598;2023-07-13T10:25:57;269.23;;;255.82;;
52978;SDS011;63430;53.186;6.598;2023-07-13T10:28:06;246.05;;;233.52;;
52978;SDS011;63430;53.186;6.598;2023-07-13T10:30:23;455.02;;;431.52;;
52978;SDS011;63430;53.186;6.598;2023-07-13T10:32:31;456.67;;;433.48;;
52978;SDS011;63430;53.186;6.598;2023-07-13T10:34:39;371.48;;;352.80;;
52978;SDS011;63430;53.186;6.598;2023-07-13T10:36:47;337.02;;;319.83;;
52978;SDS011;63430;53.186;6.598;2023-07-13T10:38:52;272.35;;;258.58;;
52978;SDS011;63430;53.186;6.598;2023-07-13T10:40:57;400.23;;;378.88;;
52978;SDS011;63430;53.186;6.598;2023-07-13T10:43:05;317.75;;;301.13;;
52978;SDS011;63430;53.186;6.598;2023-07-13T10:45:16;315.17;;;299.13;;
52978;SDS011;63430;53.186;6.598;2023-07-13T10:47:20;269.35;;;255.63;;
52978;SDS011;63430;53.186;6.598;2023-07-13T10:49:24;314.65;;;298.38;;
52978;SDS011;63430;53.186;6.598;2023-07-13T10:51:32;371.45;;;353.40;;
52978;SDS011;63430;53.186;6.598;2023-07-13T10:53:37;399.40;;;375.23;;
52978;SDS011;63430;53.186;6.598;2023-07-13T10:55:54;136.60;;;129.52;;
52978;SDS011;63430;53.186;6.598;2023-07-13T10:58:02;256.77;;;244.07;;
52978;SDS011;63430;53.186;6.598;2023-07-13T11:00:14;251.10;;;239.50;;
52978;SDS011;63430;53.186;6.598;2023-07-13T11:02:23;245.77;;;234.23;;
52978;SDS011;63430;53.186;6.598;2023-07-13T11:04:39;248.05;;;236.93;;
52978;SDS011;63430;53.186;6.598;2023-07-13T11:08:52;148.38;;;141.05;;
52978;SDS011;63430;53.186;6.598;2023-07-13T11:10:56;209.13;;;199.00;;
52978;SDS011;63430;53.186;6.598;2023-07-13T11:12:58;178.40;;;170.32;;
52978;SDS011;63430;53.186;6.598;2023-07-13T11:15:04;353.55;;;329.98;;
52978;SDS011;63430;53.186;6.598;2023-07-13T11:17:29;272.38;;;259.75;;
52978;SDS011;63430;53.186;6.598;2023-07-13T11:19:41;148.32;;;141.35;;
52978;SDS011;63430;53.186;6.598;2023-07-13T11:24:16;155.27;;;146.88;;
52978;SDS011;63430;53.186;6.598;2023-07-13T11:28:41;283.80;;;262.23;;
52978;SDS011;63430;53.186;6.598;2023-07-13T11:30:46;209.15;;;199.30;;
52978;SDS011;63430;53.186;6.598;2023-07-13T11:33:04;202.30;;;193.10;;
52978;SDS011;63430;53.186;6.598;2023-07-13T11:35:19;134.20;;;127.47;;
52978;SDS011;63430;53.186;6.598;2023-07-13T11:37:28;257.55;;;238.15;;
52978;SDS011;63430;53.186;6.598;2023-07-13T11:39:35;219.48;;;209.02;;
52978;SDS011;63430;53.186;6.598;2023-07-13T11:41:49;170.07;;;162.00;;
52978;SDS011;63430;53.186;6.598;2023-07-13T11:43:54;210.88;;;201.05;;
52978;SDS011;63430;53.186;6.598;2023-07-13T11:46:13;552.88;;;502.48;;
52978;SDS011;63430;53.186;6.598;2023-07-13T11:48:23;266.13;;;250.35;;
52978;SDS011;63430;53.186;6.598;2023-07-13T11:50:29;268.90;;;256.08;;
52978;SDS011;63430;53.186;6.598;2023-07-13T11:52:35;151.33;;;143.93;;
52978;SDS011;63430;53.186;6.598;2023-07-13T11:54:43;304.00;;;289.38;;
52978;SDS011;63430;53.186;6.598;2023-07-13T11:56:57;282.05;;;267.20;;
52978;SDS011;63430;53.186;6.598;2023-07-13T11:59:04;284.20;;;260.23;;
52978;SDS011;63430;53.186;6.598;2023-07-13T12:01:15;222.88;;;210.32;;
52978;SDS011;63430;53.186;6.598;2023-07-13T12:03:22;324.00;;;303.27;;
52978;SDS011;63430;53.186;6.598;2023-07-13T12:05:27;273.65;;;261.00;;
52978;SDS011;63430;53.186;6.598;2023-07-13T12:07:37;276.35;;;257.88;;
52978;SDS011;63430;53.186;6.598;2023-07-13T12:09:42;68.85;;;65.70;;
52978;SDS011;63430;53.186;6.598;2023-07-13T12:11:46;163.30;;;155.57;;
52978;SDS011;63430;53.186;6.598;2023-07-13T12:13:49;254.82;;;243.10;;
52978;SDS011;63430;53.186;6.598;2023-07-13T12:15:52;105.75;;;100.90;;
52978;SDS011;63430;53.186;6.598;2023-07-13T12:17:58;28.23;;;26.98;;
52978;SDS011;63430;53.186;6.598;2023-07-13T12:20:03;411.27;;;377.63;;
52978;SDS011;63430;53.186;6.598;2023-07-13T12:22:20;59.55;;;56.60;;
52978;SDS011;63430;53.186;6.598;2023-07-13T12:24:27;85.55;;;79.88;;
52978;SDS011;63430;53.186;6.598;2023-07-13T12:26:30;119.28;;;113.88;;
52978;SDS011;63430;53.186;6.598;2023-07-13T12:28:35;248.57;;;229.57;;
52978;SDS011;63430;53.186;6.598;2023-07-13T12:30:40;67.22;;;64.10;;